Arlington, Kansas
Current Conditions -  °F | °C
As of 8:52 AM on Friday 19 Dec 2014 (Local Time) from KHUT Reporting Station
Haze Haze  
Wind Chill: -5°   Ceiling: 400
Heat Index: -1°   Visibility: 2.5mi
Dew Point: -2°   Wind: 8mph
Humidity: 92%   Direction: 120°ESE
Pressure: 30.24"   Gusts: NA
Location:  37.9°N, 98.18°W
Report Text: KHUT 191452Z 12007KT 2 1/2SM BR OVC004 M01/M02 A3024 RMK AO2 SLP247 T10061017 53016
Loading
Personal Weather Stations






























Interactive Weather Map New forecast layout! Learn more

10-Day Weather Forecast

Advertisements
Track Severe Weather on mobile